Current | Forecast
Updated: 9:00 PM JST on June 27, 2017
Observed at Oita Airport, Japan
Temperature 70°F
Humidity 100%
Dew Point 70°F
Wind West at 1 mph
Pressure 29.86 in (Steady)
Conditions Light Rain
Visibility 3.1 miles
UV 0 out of 16
Clouds (FEW) : 100 ft
Scattered Clouds (SCT) : 300 ft
Mostly Cloudy (BKN) : 400 ft
Yesterday's Maximum 73°F
Yesterday's Minimum 70°F approx.
Yesterday's Cooling Degree Days 7 approx.
Sunrise5:06 AM JST
Sunset7:24 PM JST
Moon Rise8:20 AM JST
Moon Set10:06 PM JST
Moon PhaseMoon Phase
Waxing Crescent
Raw METARMETAR RJFO 271200Z 26001KT 5000 -RA BR FEW001 SCT003 BKN004 21/21 Q1011


Monday
. High: 74° F.
Tuesday
. High: 82° F.
Wednesday
. High: 75° F.
Thursday
. High: 75° F.
Friday
. High: 62° F.
Saturday
. High: 75° F.
Sunday
. High: 75° F.
Monday
. High: 77° F.

Units: English | Metric

Find the Weather for any City, State or Zipcode, or Country:

U.S. State List | Severe Weather | Tropical Storms | Ski Conditions
United States | Canada | Central America | South America | Asia | Europe | Australia | Africa | Islands

Weather Underground

© Copyright 2017
The Weather Company, LLC